Time;durP1;ratioP1;P1;durP2;ratioP2;P2;SDS_P1;SDS_P2;PMS_P1;PMS_P2;Temp;Humidity;BMP_temperature;BMP_pressure;BME280_temperature;BME280_humidity;BME280_pressure;Samples;Min_cycle;Max_cycle;Signal;HPM_P1;HPM_P2
2022/01/01 00:00:05;;;;;;;51.72;24.17;;;11.20;99.90;;;;;;4936549;29;20047;-83
2022/01/01 00:02:30;;;;;;;48.05;19.20;;;11.20;99.90;;;;;;4936176;29;20098;-84
2022/01/01 00:04:57;;;;;;;51.38;20.70;;;11.20;99.90;;;;;;4936907;29;20051;-84
2022/01/01 00:07:23;;;;;;;58.53;26.60;;;11.20;99.90;;;;;;4920910;29;20463;-84
2022/01/01 00:09:51;;;;;;;53.88;22.80;;;11.20;99.90;;;;;;4927209;29;20127;-84
2022/01/01 00:12:18;;;;;;;50.40;22.73;;;11.20;99.90;;;;;;4917675;29;20051;-83
2022/01/01 00:14:44;;;;;;;53.50;22.05;;;11.20;99.90;;;;;;4902987;29;20051;-84
2022/01/01 00:17:10;;;;;;;62.42;23.35;;;11.20;99.90;;;;;;4920749;29;20043;-87
2022/01/01 00:19:36;;;;;;;56.58;26.15;;;11.20;99.90;;;;;;4936268;29;20047;-84
2022/01/01 00:22:03;;;;;;;50.25;21.17;;;11.20;99.90;;;;;;4937253;29;20138;-84
2022/01/01 00:24:29;;;;;;;61.33;22.95;;;11.20;99.90;;;;;;4936535;29;20054;-84
2022/01/01 00:26:55;;;;;;;59.95;25.13;;;11.20;99.90;;;;;;4936807;29;20055;-83
2022/01/01 00:29:21;;;;;;;57.72;23.02;;;11.20;99.90;;;;;;4920641;29;20055;-84
2022/01/01 00:31:47;;;;;;;52.55;18.23;;;11.20;99.90;;;;;;4937154;29;20047;-84
2022/01/01 00:34:13;;;;;;;54.15;21.23;;;11.10;99.90;;;;;;4936795;29;20063;-87
2022/01/01 00:36:39;;;;;;;52.55;20.15;;;11.10;99.90;;;;;;4920700;28;20051;-84
2022/01/01 00:39:05;;;;;;;48.42;20.85;;;11.10;99.90;;;;;;4937042;29;20567;-83
2022/01/01 00:41:31;;;;;;;58.65;26.65;;;11.10;99.90;;;;;;4952544;29;20073;-84
2022/01/01 00:43:57;;;;;;;56.60;23.83;;;11.00;99.90;;;;;;4936767;29;20102;-84
2022/01/01 00:46:23;;;;;;;63.50;25.75;;;10.90;99.90;;;;;;4920438;29;20457;-84
2022/01/01 00:48:53;;;;;;;57.22;25.05;;;10.90;99.90;;;;;;4937167;29;20051;-84
2022/01/01 00:51:20;;;;;;;72.65;31.42;;;10.90;99.90;;;;;;4920873;29;20047;-84
2022/01/01 00:53:46;;;;;;;64.25;27.65;;;10.90;99.90;;;;;;4937121;29;20139;-86
2022/01/01 00:56:11;;;;;;;66.00;24.15;;;10.80;99.90;;;;;;4921221;29;20118;-85
2022/01/01 00:58:37;;;;;;;64.28;27.33;;;10.80;99.90;;;;;;4936401;29;20806;-84
2022/01/01 01:01:03;;;;;;;62.05;25.58;;;10.80;99.90;;;;;;4936677;29;20090;-85
2022/01/01 01:03:29;;;;;;;71.25;25.52;;;10.80;99.90;;;;;;4936585;29;20071;-84
2022/01/01 01:05:54;;;;;;;72.32;28.13;;;10.80;99.90;;;;;;4936669;29;20090;-83
2022/01/01 01:08:20;;;;;;;71.88;28.42;;;10.70;99.90;;;;;;4920467;29;20058;-83
2022/01/01 01:10:47;;;;;;;88.03;42.78;;;10.70;99.90;;;;;;4918498;29;20059;-84
2022/01/01 01:13:15;;;;;;;78.28;31.85;;;10.60;99.90;;;;;;4945837;29;20060;-84
2022/01/01 01:15:42;;;;;;;75.05;33.40;;;10.70;99.90;;;;;;4906787;29;20086;-84
2022/01/01 01:18:08;;;;;;;83.35;36.13;;;10.70;99.90;;;;;;4920621;29;20456;-83
2022/01/01 01:20:34;;;;;;;85.93;38.97;;;10.70;99.90;;;;;;4917369;29;20055;-84
2022/01/01 01:23:00;;;;;;;89.85;36.47;;;10.70;99.90;;;;;;4917483;29;20043;-84
2022/01/01 01:25:29;;;;;;;88.65;34.78;;;10.70;99.90;;;;;;4926226;29;20106;-84
2022/01/01 01:28:04;;;;;;;88.13;33.83;;;10.70;99.90;;;;;;4918285;29;20066;-84
2022/01/01 01:30:30;;;;;;;80.68;33.90;;;10.80;99.90;;;;;;4909248;29;20058;-84
2022/01/01 01:32:56;;;;;;;85.13;34.60;;;10.70;99.90;;;;;;4917676;29;20052;-83
2022/01/01 01:35:21;;;;;;;80.97;28.85;;;10.80;99.90;;;;;;4931700;29;20154;-87
2022/01/01 01:37:47;;;;;;;67.55;28.05;;;10.80;99.90;;;;;;4915957;29;20060;-84
2022/01/01 01:40:13;;;;;;;72.47;26.83;;;10.80;99.90;;;;;;4917584;29;20172;-83
2022/01/01 01:42:39;;;;;;;73.10;27.73;;;10.80;99.90;;;;;;4912008;29;20039;-85
2022/01/01 01:45:11;;;;;;;75.07;29.92;;;10.80;99.90;;;;;;4915794;29;20048;-84
2022/01/01 01:47:38;;;;;;;112.30;56.83;;;10.90;99.90;;;;;;4899899;29;20059;-84
2022/01/01 01:50:07;;;;;;;72.07;26.17;;;10.80;99.90;;;;;;4916546;29;20445;-85
2022/01/01 01:52:37;;;;;;;69.28;28.85;;;10.80;99.90;;;;;;4916930;29;20114;-84
2022/01/01 01:55:07;;;;;;;72.75;26.23;;;10.80;99.90;;;;;;4917283;29;20074;-85
2022/01/01 01:57:41;;;;;;;78.10;28.92;;;10.90;99.90;;;;;;4903533;29;20048;-83
2022/01/01 02:00:23;;;;;;;78.60;27.17;;;10.80;99.90;;;;;;4920766;29;20043;-83
2022/01/01 02:02:49;;;;;;;75.20;27.73;;;10.90;99.90;;;;;;4920485;29;20048;-85
2022/01/01 02:05:14;;;;;;;71.13;27.10;;;10.80;99.90;;;;;;4904949;29;20063;-84
2022/01/01 02:07:41;;;;;;;80.13;29.58;;;10.90;99.90;;;;;;4920379;29;20048;-83
2022/01/01 02:10:08;;;;;;;77.05;31.02;;;10.90;99.90;;;;;;4905000;29;20055;-83
2022/01/01 02:12:34;;;;;;;78.18;33.65;;;10.90;99.90;;;;;;4904489;29;20051;-85
2022/01/01 02:17:29;;;;;;;91.45;37.13;;;10.90;99.90;;;;;;4919037;29;20059;-88
2022/01/01 02:20:02;;;;;;;119.90;56.42;;;10.80;99.90;;;;;;4926441;29;20051;-85
2022/01/01 02:22:45;;;;;;;96.75;41.13;;;10.90;99.90;;;;;;4937820;29;20087;-86
2022/01/01 02:25:11;;;;;;;91.80;40.10;;;10.90;99.90;;;;;;4938287;29;20405;-85
2022/01/01 02:27:38;;;;;;;93.63;48.53;;;10.80;99.90;;;;;;4922406;29;20047;-83
2022/01/01 02:30:10;;;;;;;129.93;77.15;;;10.80;99.90;;;;;;4939101;29;20043;-84
2022/01/01 02:32:36;;;;;;;99.00;47.47;;;10.80;99.90;;;;;;4954720;29;20043;-84
2022/01/01 02:35:08;;;;;;;111.15;63.38;;;10.80;99.90;;;;;;4939346;29;20055;-84
2022/01/01 02:37:38;;;;;;;103.18;48.08;;;10.70;99.90;;;;;;4952916;28;20125;-82
2022/01/01 02:40:05;;;;;;;97.25;42.97;;;10.60;99.90;;;;;;4937564;29;20117;-83
2022/01/01 02:42:31;;;;;;;95.35;45.85;;;10.60;99.90;;;;;;4937175;29;20055;-84
2022/01/01 02:44:59;;;;;;;105.30;49.30;;;10.60;99.90;;;;;;4938481;29;20378;-83
2022/01/01 02:47:26;;;;;;;98.03;44.25;;;10.50;99.90;;;;;;4940519;29;20118;-84
2022/01/01 02:49:52;;;;;;;113.97;49.38;;;10.60;99.90;;;;;;4922665;29;20059;-84
2022/01/01 02:52:17;;;;;;;103.50;45.83;;;10.60;99.90;;;;;;4938579;29;20055;-83
2022/01/01 02:54:43;;;;;;;106.85;47.10;;;10.60;99.90;;;;;;4938511;29;20436;-85
2022/01/01 02:57:09;;;;;;;105.35;47.67;;;10.60;99.90;;;;;;4938987;29;20056;-84
2022/01/01 02:59:34;;;;;;;110.03;51.03;;;10.70;99.90;;;;;;4922601;29;20054;-83
2022/01/01 03:02:00;;;;;;;111.63;53.03;;;10.70;99.90;;;;;;4923149;29;20134;-83
2022/01/01 03:04:26;;;;;;;101.45;45.47;;;10.70;99.90;;;;;;4938449;29;20133;-83
2022/01/01 03:06:54;;;;;;;102.50;43.97;;;10.70;99.90;;;;;;4937979;29;20046;-83
2022/01/01 03:09:23;;;;;;;110.32;50.75;;;10.70;99.90;;;;;;4938667;29;20059;-84
2022/01/01 03:11:48;;;;;;;105.55;47.70;;;10.70;99.90;;;;;;4922534;29;20078;-84
2022/01/01 03:14:17;;;;;;;103.32;47.72;;;10.80;99.90;;;;;;4922635;29;20066;-85
2022/01/01 03:16:44;;;;;;;101.70;48.35;;;10.70;99.90;;;;;;4936707;29;20142;-85
2022/01/01 03:19:11;;;;;;;90.25;43.15;;;10.80;99.90;;;;;;4919874;29;20501;-84
2022/01/01 03:21:37;;;;;;;114.55;53.20;;;10.70;99.90;;;;;;4919084;29;20055;-84
2022/01/01 03:24:03;;;;;;;104.63;49.72;;;10.80;99.90;;;;;;4934869;29;20409;-83
2022/01/01 03:26:29;;;;;;;94.55;42.58;;;10.70;99.90;;;;;;4934702;29;20504;-83
2022/01/01 03:28:54;;;;;;;103.03;46.53;;;10.80;99.90;;;;;;4934352;29;20118;-85
2022/01/01 03:31:20;;;;;;;111.15;45.85;;;10.80;99.90;;;;;;4934751;29;20052;-84
2022/01/01 03:33:46;;;;;;;101.68;45.05;;;10.80;99.90;;;;;;4901279;29;20047;-83
2022/01/01 03:36:12;;;;;;;112.35;48.55;;;10.80;99.90;;;;;;4918754;29;20059;-84
2022/01/01 03:38:37;;;;;;;109.38;48.15;;;10.80;99.90;;;;;;4901784;29;20056;-83
2022/01/01 03:41:03;;;;;;;108.15;49.25;;;10.80;99.90;;;;;;4918669;29;20557;-83
2022/01/01 03:43:29;;;;;;;104.85;48.30;;;10.80;99.90;;;;;;4918849;29;20167;-83
2022/01/01 03:45:55;;;;;;;113.35;47.80;;;10.80;99.90;;;;;;4902828;29;20154;-83
2022/01/01 03:48:20;;;;;;;115.57;50.13;;;10.80;99.90;;;;;;4902908;29;20103;-83
2022/01/01 03:50:46;;;;;;;110.15;49.50;;;10.80;99.90;;;;;;4902743;29;20052;-83
2022/01/01 03:53:12;;;;;;;126.57;57.40;;;10.80;99.90;;;;;;4918654;29;20047;-84
2022/01/01 03:55:37;;;;;;;126.85;58.30;;;10.80;99.90;;;;;;4918372;29;20097;-86
2022/01/01 03:58:03;;;;;;;121.22;56.08;;;10.80;99.90;;;;;;4918555;29;20450;-83
2022/01/01 04:00:29;;;;;;;118.72;52.47;;;10.80;99.90;;;;;;4918443;29;20047;-84
2022/01/01 04:03:04;;;;;;;105.38;48.10;;;10.80;99.90;;;;;;4917710;29;20102;-83
2022/01/01 04:05:29;;;;;;;111.18;50.40;;;10.80;99.90;;;;;;4902563;29;20051;-83
2022/01/01 04:07:55;;;;;;;116.47;53.67;;;10.80;99.90;;;;;;4902134;29;20467;-83
2022/01/01 04:10:21;;;;;;;121.85;55.97;;;10.80;99.90;;;;;;4918221;29;20067;-82
2022/01/01 04:12:47;;;;;;;114.35;52.75;;;10.80;99.90;;;;;;4917705;29;20043;-83
2022/01/01 04:15:12;;;;;;;117.13;54.42;;;10.80;99.90;;;;;;4918453;29;20047;-84
2022/01/01 04:17:38;;;;;;;114.78;56.05;;;10.80;99.90;;;;;;4917629;29;20385;-83
2022/01/01 04:20:05;;;;;;;115.40;55.95;;;10.80;99.90;;;;;;4926309;29;20054;-83
2022/01/01 04:22:31;;;;;;;113.45;56.53;;;10.80;99.90;;;;;;4937176;29;20062;-83
2022/01/01 04:24:57;;;;;;;125.65;57.72;;;10.80;99.90;;;;;;4920769;29;20058;-83
2022/01/01 04:27:22;;;;;;;122.55;56.97;;;10.80;99.90;;;;;;4921054;29;20055;-84
2022/01/01 04:29:48;;;;;;;111.65;57.53;;;10.80;99.90;;;;;;4936347;29;20485;-83
2022/01/01 04:32:14;;;;;;;126.72;61.28;;;10.80;99.90;;;;;;4937079;29;20482;-82
2022/01/01 04:34:40;;;;;;;124.30;58.17;;;10.80;99.90;;;;;;4933591;29;20044;-82
2022/01/01 04:37:12;;;;;;;123.85;59.88;;;10.80;99.90;;;;;;4917026;29;20059;-82
2022/01/01 04:39:38;;;;;;;126.43;58.38;;;10.80;99.90;;;;;;4917396;29;20466;-84
2022/01/01 04:42:04;;;;;;;125.55;62.03;;;10.80;99.90;;;;;;4932541;29;20087;-84
2022/01/01 04:44:30;;;;;;;134.23;60.28;;;10.80;99.90;;;;;;4931933;29;20083;-83
2022/01/01 04:46:56;;;;;;;139.95;62.17;;;10.80;99.90;;;;;;4931676;29;20063;-85
2022/01/01 04:49:22;;;;;;;146.75;71.13;;;10.80;99.90;;;;;;4901023;29;20095;-85
2022/01/01 04:51:51;;;;;;;125.40;58.70;;;10.80;99.90;;;;;;4933032;29;20055;-84
2022/01/01 04:54:17;;;;;;;123.22;60.38;;;10.80;99.90;;;;;;4917451;29;20140;-83
2022/01/01 04:56:46;;;;;;;120.47;56.47;;;10.80;99.90;;;;;;4932572;29;20074;-84
2022/01/01 04:59:12;;;;;;;122.43;57.70;;;10.80;99.90;;;;;;4931779;29;20059;-84
2022/01/01 05:01:39;;;;;;;117.15;55.88;;;10.90;99.90;;;;;;4917257;29;20155;-83
2022/01/01 05:04:06;;;;;;;130.13;58.70;;;10.80;99.90;;;;;;4916972;29;20080;-82
2022/01/01 05:06:32;;;;;;;133.60;60.65;;;10.80;99.90;;;;;;4933211;29;20063;-83
2022/01/01 05:08:58;;;;;;;120.88;57.88;;;10.90;99.90;;;;;;4916225;29;20048;-83
2022/01/01 05:11:24;;;;;;;131.00;60.10;;;10.80;99.90;;;;;;4932550;29;20035;-82
2022/01/01 05:13:49;;;;;;;122.22;56.97;;;10.90;99.90;;;;;;4901367;29;20051;-84
2022/01/01 05:16:18;;;;;;;124.45;58.97;;;10.90;99.90;;;;;;4917215;29;20094;-85
2022/01/01 05:18:44;;;;;;;121.57;57.92;;;10.90;99.90;;;;;;4933016;29;20051;-84
2022/01/01 05:21:10;;;;;;;120.15;60.00;;;10.90;99.90;;;;;;4935642;29;20079;-83
2022/01/01 05:23:36;;;;;;;123.10;58.45;;;10.90;99.90;;;;;;4936602;29;20081;-83
2022/01/01 05:26:02;;;;;;;125.57;61.40;;;10.90;99.90;;;;;;4919826;29;20055;-83
2022/01/01 05:28:28;;;;;;;126.32;59.40;;;10.90;99.90;;;;;;4935952;29;20741;-84
2022/01/01 05:30:53;;;;;;;121.97;56.80;;;10.90;99.90;;;;;;4937623;29;20093;-84
2022/01/01 05:33:19;;;;;;;124.10;58.13;;;10.90;99.90;;;;;;4939680;29;20126;-82
2022/01/01 05:35:45;;;;;;;122.22;53.83;;;10.90;99.90;;;;;;4939835;29;20130;-83
2022/01/01 05:38:10;;;;;;;114.53;55.28;;;10.90;99.90;;;;;;4939070;29;20051;-82
2022/01/01 05:40:37;;;;;;;123.97;55.15;;;10.90;99.90;;;;;;4939385;29;20480;-85
2022/01/01 05:43:03;;;;;;;120.95;51.20;;;10.90;99.90;;;;;;4923684;29;20043;-83
2022/01/01 05:45:28;;;;;;;115.10;49.92;;;10.90;99.90;;;;;;4939608;29;20473;-83
2022/01/01 05:47:54;;;;;;;95.65;45.85;;;11.00;99.90;;;;;;4923278;29;20151;-82
2022/01/01 05:50:20;;;;;;;78.22;39.03;;;11.00;99.90;;;;;;4923738;29;20086;-83
2022/01/01 05:52:46;;;;;;;95.90;39.78;;;11.00;99.90;;;;;;4939339;29;20047;-83
2022/01/01 05:55:12;;;;;;;97.93;41.10;;;10.90;99.90;;;;;;4954933;29;20472;-83
2022/01/01 05:57:38;;;;;;;100.45;43.15;;;11.00;99.90;;;;;;4938755;29;20055;-83
2022/01/01 06:00:07;;;;;;;107.75;42.65;;;10.90;99.90;;;;;;4939002;29;20055;-82
2022/01/01 06:02:40;;;;;;;105.45;40.83;;;11.00;99.90;;;;;;4922931;29;20066;-83
2022/01/01 06:05:10;;;;;;;87.45;37.35;;;10.90;99.90;;;;;;4938747;29;20087;-82
2022/01/01 06:07:35;;;;;;;103.40;39.70;;;10.90;99.90;;;;;;4923215;29;20039;-83
2022/01/01 06:10:03;;;;;;;98.40;34.10;;;10.90;99.90;;;;;;4938908;29;20047;-83
2022/01/01 06:12:28;;;;;;;98.25;36.10;;;10.90;99.90;;;;;;4938779;29;20059;-82
2022/01/01 06:14:54;;;;;;;95.80;35.78;;;10.90;99.90;;;;;;4938593;29;20059;-87
2022/01/01 06:17:20;;;;;;;87.20;34.53;;;11.00;99.90;;;;;;4938326;29;20513;-84
2022/01/01 06:19:45;;;;;;;92.43;33.45;;;11.00;99.90;;;;;;4938336;29;20405;-84
2022/01/01 06:22:11;;;;;;;91.57;32.75;;;11.00;99.90;;;;;;4937852;29;20051;-83
2022/01/01 06:24:37;;;;;;;88.00;31.90;;;11.00;99.90;;;;;;4922616;29;20047;-84
2022/01/01 06:27:03;;;;;;;85.43;30.02;;;10.90;99.90;;;;;;4921703;29;20059;-85
2022/01/01 06:29:28;;;;;;;86.57;29.65;;;11.00;99.90;;;;;;4938353;29;20054;-84
2022/01/01 06:31:54;;;;;;;83.03;29.85;;;11.00;99.90;;;;;;4923048;29;20047;-83
2022/01/01 06:34:23;;;;;;;96.25;30.95;;;11.00;99.90;;;;;;4922028;29;20047;-83
2022/01/01 06:36:51;;;;;;;97.20;29.75;;;11.00;99.90;;;;;;4922441;29;20406;-83
2022/01/01 06:39:20;;;;;;;97.38;30.90;;;11.00;99.90;;;;;;4936465;29;20048;-83
2022/01/01 06:41:46;;;;;;;88.93;30.30;;;11.00;99.90;;;;;;4922037;29;20055;-83
2022/01/01 06:44:13;;;;;;;83.47;30.08;;;11.00;99.90;;;;;;4922361;29;20054;-82
2022/01/01 06:46:39;;;;;;;85.65;28.70;;;11.00;99.90;;;;;;4938016;29;20106;-83
2022/01/01 06:49:07;;;;;;;82.20;29.40;;;11.00;99.90;;;;;;4937316;29;20337;-84
2022/01/01 06:51:36;;;;;;;85.32;29.13;;;11.00;99.90;;;;;;4938686;29;20058;-84
2022/01/01 06:54:03;;;;;;;85.60;28.25;;;11.10;99.90;;;;;;4938145;29;20480;-83
2022/01/01 06:56:29;;;;;;;87.00;29.23;;;11.10;99.90;;;;;;4922808;29;20540;-84
2022/01/01 06:58:54;;;;;;;84.93;27.88;;;11.10;99.90;;;;;;4938500;29;20051;-83
2022/01/01 07:01:20;;;;;;;75.18;24.70;;;11.10;99.90;;;;;;4937883;29;20382;-83
2022/01/01 07:03:46;;;;;;;74.20;25.13;;;11.10;99.90;;;;;;4922347;29;20102;-84
2022/01/01 07:06:12;;;;;;;79.40;25.67;;;11.20;99.90;;;;;;4938063;29;20085;-83
2022/01/01 07:08:38;;;;;;;71.47;24.65;;;11.10;99.90;;;;;;4938021;29;20047;-84
2022/01/01 07:11:07;;;;;;;64.53;23.50;;;11.20;99.90;;;;;;4921391;29;20049;-84
2022/01/01 07:13:35;;;;;;;77.90;25.42;;;11.20;99.90;;;;;;4938296;29;20051;-85
2022/01/01 07:16:01;;;;;;;72.65;24.52;;;11.20;99.90;;;;;;4937609;29;20058;-86
2022/01/01 07:18:27;;;;;;;80.03;26.55;;;11.20;99.90;;;;;;4922009;29;20047;-84
2022/01/01 07:20:52;;;;;;;78.25;24.85;;;11.30;99.90;;;;;;4907606;29;20055;-83
2022/01/01 07:23:18;;;;;;;77.43;24.85;;;11.30;99.90;;;;;;4918811;29;20134;-84
2022/01/01 07:25:44;;;;;;;84.22;27.27;;;11.20;99.90;;;;;;4918839;29;20130;-84
2022/01/01 07:28:13;;;;;;;79.97;25.90;;;11.30;99.90;;;;;;4918762;29;20142;-82
2022/01/01 07:30:42;;;;;;;70.45;24.35;;;11.40;99.90;;;;;;4919514;29;20126;-83
2022/01/01 07:33:15;;;;;;;79.57;26.63;;;11.30;99.90;;;;;;4919630;29;20130;-86
2022/01/01 07:35:41;;;;;;;84.15;27.40;;;11.40;99.90;;;;;;4922047;29;20109;-82
2022/01/01 07:38:07;;;;;;;84.53;27.17;;;11.40;99.90;;;;;;4936669;29;20125;-84
2022/01/01 07:40:34;;;;;;;80.63;28.10;;;11.40;99.90;;;;;;4937225;29;20563;-84
2022/01/01 07:43:13;;;;;;;73.40;28.23;;;11.40;99.90;;;;;;4920858;29;20098;-84
2022/01/01 07:45:40;;;;;;;85.97;26.70;;;11.40;99.90;;;;;;4936475;29;20051;-85
2022/01/01 07:48:06;;;;;;;76.70;28.42;;;11.40;99.90;;;;;;4937114;29;20746;-87
2022/01/01 07:50:32;;;;;;;80.38;27.48;;;11.40;99.90;;;;;;4937368;29;20055;-83
2022/01/01 07:52:58;;;;;;;81.93;28.23;;;11.40;99.90;;;;;;4936845;29;20051;-83
2022/01/01 07:55:23;;;;;;;71.28;27.15;;;11.40;99.90;;;;;;4921412;29;20081;-83
2022/01/01 07:57:49;;;;;;;82.03;29.58;;;11.40;99.90;;;;;;4937552;29;20047;-83
2022/01/01 08:00:15;;;;;;;77.70;25.98;;;11.40;99.90;;;;;;4936995;29;20482;-84
2022/01/01 08:02:46;;;;;;;72.78;27.15;;;11.50;99.90;;;;;;4921528;29;20039;-82
2022/01/01 08:05:15;;;;;;;74.45;27.13;;;11.50;99.90;;;;;;4919931;29;20047;-86
2022/01/01 08:07:45;;;;;;;64.35;26.38;;;11.40;99.90;;;;;;4935925;29;20645;-82
2022/01/01 08:10:12;;;;;;;65.28;25.33;;;11.50;99.90;;;;;;4919871;29;20078;-87
2022/01/01 08:12:43;;;;;;;64.50;25.48;;;11.50;99.90;;;;;;4938425;29;20090;-82
2022/01/01 08:15:09;;;;;;;64.10;23.80;;;11.60;99.90;;;;;;4938581;29;20051;-88
2022/01/01 08:17:35;;;;;;;64.28;25.15;;;11.60;99.90;;;;;;4921908;29;20126;-83
2022/01/01 08:20:01;;;;;;;61.58;25.30;;;11.60;99.90;;;;;;4929637;29;20134;-82
2022/01/01 08:22:27;;;;;;;58.42;25.35;;;11.70;99.90;;;;;;4918299;29;20112;-83
2022/01/01 08:24:53;;;;;;;70.60;26.58;;;11.70;99.90;;;;;;4903124;29;20551;-83
2022/01/01 08:27:19;;;;;;;66.25;26.38;;;11.70;99.90;;;;;;4918541;29;20047;-83
2022/01/01 08:29:44;;;;;;;74.57;27.55;;;11.70;99.90;;;;;;4902851;29;20083;-84
2022/01/01 08:32:11;;;;;;;70.10;27.95;;;11.70;99.90;;;;;;4902591;29;20078;-84
2022/01/01 08:34:36;;;;;;;79.80;28.85;;;11.70;99.90;;;;;;4931602;29;20122;-82
2022/01/01 08:37:02;;;;;;;80.15;28.80;;;11.70;99.90;;;;;;4936614;28;20138;-81
2022/01/01 08:39:28;;;;;;;75.60;28.38;;;11.70;99.90;;;;;;4952710;29;20063;-84
2022/01/01 08:41:54;;;;;;;71.03;30.02;;;11.70;99.90;;;;;;4920267;29;20058;-84
2022/01/01 08:44:20;;;;;;;73.45;30.70;;;11.70;99.90;;;;;;4951461;29;20051;-84
2022/01/01 08:46:46;;;;;;;74.90;29.83;;;11.70;99.90;;;;;;4919947;29;20050;-86
2022/01/01 08:49:12;;;;;;;77.47;30.48;;;11.70;99.90;;;;;;4935528;29;20082;-84
2022/01/01 08:51:40;;;;;;;75.25;30.50;;;11.70;99.90;;;;;;4935091;29;20055;-85
2022/01/01 08:54:11;;;;;;;72.28;29.92;;;11.70;99.90;;;;;;4919323;29;20055;-84
2022/01/01 08:56:37;;;;;;;75.38;31.25;;;11.70;99.90;;;;;;4919086;29;20047;-85
2022/01/01 08:59:03;;;;;;;74.13;30.75;;;11.70;99.90;;;;;;4919522;29;20063;-85
2022/01/01 09:01:29;;;;;;;74.13;30.35;;;11.80;99.90;;;;;;4934842;29;20430;-83
2022/01/01 09:03:55;;;;;;;72.60;30.55;;;11.80;99.90;;;;;;4935040;29;20043;-85
2022/01/01 09:06:21;;;;;;;78.97;30.48;;;11.80;99.90;;;;;;4934629;29;20055;-83
2022/01/01 09:08:47;;;;;;;78.35;31.23;;;11.90;99.90;;;;;;4935626;29;20118;-85
2022/01/01 09:11:13;;;;;;;72.95;28.48;;;11.90;99.90;;;;;;4935365;29;20055;-83
2022/01/01 09:13:43;;;;;;;68.47;29.63;;;11.90;99.90;;;;;;4950474;29;20091;-82
2022/01/01 09:16:10;;;;;;;74.72;28.08;;;11.90;99.90;;;;;;4934854;29;20596;-84
2022/01/01 09:18:40;;;;;;;64.88;28.08;;;11.90;99.90;;;;;;4950904;29;20091;-84
2022/01/01 09:21:07;;;;;;;67.50;27.45;;;12.00;99.90;;;;;;4904306;29;20122;-83
2022/01/01 09:23:33;;;;;;;59.03;26.30;;;12.00;99.90;;;;;;4932393;29;20048;-82
2022/01/01 09:26:00;;;;;;;63.45;26.80;;;12.00;99.90;;;;;;4933080;29;20059;-85
2022/01/01 09:28:30;;;;;;;63.03;27.85;;;12.00;99.90;;;;;;4932498;29;20118;-83
2022/01/01 09:30:57;;;;;;;61.63;25.58;;;12.10;99.90;;;;;;4932876;29;20048;-83
2022/01/01 09:33:27;;;;;;;53.08;26.15;;;12.10;99.90;;;;;;4932233;29;20048;-84
2022/01/01 09:35:53;;;;;;;57.97;26.38;;;12.10;99.90;;;;;;4933289;29;20068;-83
2022/01/01 09:38:18;;;;;;;59.38;27.13;;;12.10;99.90;;;;;;4916831;29;20110;-85
2022/01/01 09:40:44;;;;;;;50.80;25.38;;;12.10;99.90;;;;;;4916779;29;20059;-85
2022/01/01 09:43:10;;;;;;;49.05;24.77;;;12.20;99.90;;;;;;4933013;29;20494;-83
2022/01/01 09:45:40;;;;;;;57.20;25.85;;;12.20;99.90;;;;;;4916834;29;20047;-83
2022/01/01 09:48:07;;;;;;;48.92;25.40;;;12.20;99.90;;;;;;4933464;29;20134;-84
2022/01/01 09:50:33;;;;;;;50.03;24.95;;;12.20;99.90;;;;;;4916820;29;20140;-85
2022/01/01 09:52:58;;;;;;;55.30;25.02;;;12.20;99.90;;;;;;4933125;29;20092;-84
2022/01/01 09:55:24;;;;;;;56.00;25.23;;;12.20;99.90;;;;;;4901256;29;20047;-84
2022/01/01 09:57:50;;;;;;;51.70;24.35;;;12.20;99.90;;;;;;4932644;29;20115;-84
2022/01/01 10:00:16;;;;;;;53.88;24.88;;;12.30;99.90;;;;;;4931352;29;20394;-85
2022/01/01 10:02:41;;;;;;;54.13;25.25;;;12.30;99.90;;;;;;4900521;29;20046;-81
2022/01/01 10:05:07;;;;;;;55.53;25.27;;;12.30;99.90;;;;;;4901408;29;20055;-82
2022/01/01 10:07:33;;;;;;;58.63;24.70;;;12.30;99.90;;;;;;4932412;29;20185;-83
2022/01/01 10:10:23;;;;;;;51.40;24.65;;;12.30;99.90;;;;;;4917229;29;20086;-84
2022/01/01 10:12:49;;;;;;;49.88;21.83;;;12.30;99.90;;;;;;4932967;29;20478;-84
2022/01/01 10:15:16;;;;;;;44.65;22.58;;;12.30;99.90;;;;;;4932949;29;20074;-82
2022/01/01 10:17:42;;;;;;;45.90;22.77;;;12.30;99.90;;;;;;4919781;29;20131;-83
2022/01/01 10:20:08;;;;;;;51.30;22.75;;;12.30;99.90;;;;;;4939550;29;20043;-83
2022/01/01 10:22:35;;;;;;;42.83;21.05;;;12.40;99.90;;;;;;4923456;29;20051;-83
2022/01/01 10:27:58;;;;;;;43.35;19.70;;;12.40;99.90;;;;;;4939368;29;20059;-83
2022/01/01 10:30:38;;;;;;;45.97;20.30;;;12.30;99.90;;;;;;4939407;29;20481;-82
2022/01/01 10:33:08;;;;;;;44.88;19.80;;;12.40;99.90;;;;;;4922029;29;20113;-82
2022/01/01 10:35:41;;;;;;;39.97;18.85;;;12.30;99.90;;;;;;4937472;29;20051;-83
2022/01/01 10:38:13;;;;;;;43.92;18.75;;;12.30;99.90;;;;;;4936987;29;20094;-83
2022/01/01 10:40:40;;;;;;;35.70;18.00;;;12.30;99.90;;;;;;4936965;29;20419;-81
2022/01/01 10:43:06;;;;;;;38.65;17.63;;;12.30;99.90;;;;;;4921860;29;20121;-82
2022/01/01 10:45:40;;;;;;;37.70;17.88;;;12.30;99.90;;;;;;4953395;29;20051;-84
2022/01/01 10:48:13;;;;;;;30.42;16.45;;;12.30;99.90;;;;;;4953747;29;20093;-85
2022/01/01 10:50:42;;;;;;;36.10;17.42;;;12.40;99.90;;;;;;4936922;29;20051;-84
2022/01/01 10:53:21;;;;;;;37.83;19.23;;;12.40;99.90;;;;;;4937134;29;20063;-86
2022/01/01 10:55:52;;;;;;;33.78;15.55;;;12.40;99.90;;;;;;4936797;29;20138;-84
2022/01/01 10:58:35;;;;;;;34.53;15.63;;;12.50;99.90;;;;;;4952942;29;20124;-83
2022/01/01 11:01:04;;;;;;;37.53;15.85;;;12.50;99.90;;;;;;4937350;29;20051;-83
2022/01/01 11:03:45;;;;;;;28.48;14.40;;;12.60;99.90;;;;;;4921152;29;20137;-88
2022/01/01 11:06:12;;;;;;;33.70;13.40;;;12.60;99.90;;;;;;4936971;29;20106;-82
2022/01/01 11:08:44;;;;;;;28.95;13.57;;;12.70;99.90;;;;;;4920704;29;20066;-84
2022/01/01 11:11:10;;;;;;;27.77;12.75;;;12.70;99.90;;;;;;4921167;29;20130;-83
2022/01/01 11:13:37;;;;;;;26.08;12.07;;;12.70;99.90;;;;;;4920925;29;20117;-83
2022/01/01 11:16:04;;;;;;;27.48;11.70;;;12.70;99.90;;;;;;4952906;29;20058;-83
2022/01/01 11:18:32;;;;;;;24.02;10.88;;;12.70;99.90;;;;;;4937427;29;20055;-84
2022/01/01 11:20:59;;;;;;;21.33;10.60;;;12.80;99.90;;;;;;4953850;29;20054;-84
2022/01/01 11:23:25;;;;;;;22.75;9.75;;;12.80;99.90;;;;;;4938548;29;20087;-84
2022/01/01 11:25:52;;;;;;;23.05;11.55;;;12.80;99.90;;;;;;4937989;29;20138;-83
2022/01/01 11:28:22;;;;;;;26.50;9.80;;;12.80;99.90;;;;;;4953970;28;20058;-84
2022/01/01 11:30:56;;;;;;;19.98;9.02;;;12.80;99.90;;;;;;4921181;29;20058;-83
2022/01/01 11:33:39;;;;;;;20.05;9.02;;;12.70;99.90;;;;;;4922036;29;20126;-83
2022/01/01 11:36:05;;;;;;;25.73;10.00;;;12.70;99.90;;;;;;4920840;29;20062;-83
2022/01/01 11:38:35;;;;;;;22.00;8.82;;;12.70;99.90;;;;;;4933405;29;20134;-83
2022/01/01 11:41:06;;;;;;;25.75;9.48;;;12.60;99.90;;;;;;4933879;29;20202;-83
2022/01/01 11:43:53;;;;;;;20.48;9.23;;;12.60;99.90;;;;;;4918097;29;20060;-83
2022/01/01 11:46:18;;;;;;;;;;;12.60;99.90;;;;;;4934496;29;20498;-83
2022/01/01 11:48:50;;;;;;;16.50;7.17;;;12.60;99.90;;;;;;4934033;29;19930;-83
2022/01/01 11:51:26;;;;;;;23.63;8.15;;;12.60;99.90;;;;;;4934589;29;20051;-86
2022/01/01 11:54:25;;;;;;;17.33;7.78;;;12.60;99.90;;;;;;4917999;29;20060;-83
2022/01/01 11:56:56;;;;;;;31.20;8.63;;;12.60;99.90;;;;;;4933490;29;20127;-83
2022/01/01 11:59:37;;;;;;;22.17;7.72;;;12.60;99.90;;;;;;4933935;29;20067;-82
2022/01/01 12:02:20;;;;;;;16.83;7.72;;;12.60;99.90;;;;;;4932870;29;20048;-83
2022/01/01 12:04:51;;;;;;;15.98;6.57;;;12.70;99.90;;;;;;4933109;29;20151;-84
2022/01/01 12:07:16;;;;;;;14.75;6.78;;;12.70;99.90;;;;;;4933976;29;20051;-84
2022/01/01 12:10:06;;;;;;;16.42;6.57;;;12.70;99.90;;;;;;4933371;29;20059;-84
2022/01/01 12:12:54;;;;;;;14.38;7.03;;;12.80;99.90;;;;;;4918302;29;20064;-84
2022/01/01 12:15:36;;;;;;;19.98;7.03;;;12.90;99.90;;;;;;4934013;29;20074;-83
2022/01/01 12:18:05;;;;;;;14.45;5.97;;;12.80;99.90;;;;;;4933780;29;20123;-82
2022/01/01 12:20:41;;;;;;;13.18;5.47;;;12.80;99.90;;;;;;4906717;29;20075;-83
2022/01/01 12:23:12;;;;;;;;;;;12.80;99.90;;;;;;4915232;29;20490;-83
2022/01/01 12:25:40;;;;;;;19.60;5.88;;;12.70;99.90;;;;;;4915100;29;20285;-84
2022/01/01 12:28:15;;;;;;;13.48;5.85;;;12.70;99.90;;;;;;4914749;29;20044;-84
2022/01/01 12:30:51;;;;;;;15.80;6.40;;;12.70;99.90;;;;;;4914314;29;20056;-87
2022/01/01 12:33:39;;;;;;;;;;;12.70;99.90;;;;;;4898574;29;20066;-83